createdAt,value
2022-07-29T00:00:25.399Z,17.27
2022-07-29T00:03:04.656Z,17.97
2022-07-29T00:05:33.181Z,18.61
2022-07-29T00:08:01.594Z,19.09
2022-07-29T00:10:29.517Z,19.42
2022-07-29T00:12:57.356Z,19.63
2022-07-29T00:15:25.285Z,19.64
2022-07-29T00:17:53.204Z,18.98
2022-07-29T00:20:21.296Z,18.33
2022-07-29T00:22:49.086Z,17.85
2022-07-29T00:25:16.870Z,17.51
2022-07-29T00:27:44.708Z,17.40
2022-07-29T00:30:13.375Z,18.00
2022-07-29T00:32:41.297Z,18.61
2022-07-29T00:35:28.610Z,19.05
2022-07-29T00:37:56.500Z,19.16
2022-07-29T00:40:24.328Z,18.51
2022-07-29T00:42:52.853Z,17.89
2022-07-29T00:45:20.949Z,17.39
2022-07-29T00:47:49.316Z,17.16
2022-07-29T00:50:17.194Z,17.69
2022-07-29T00:52:45.057Z,18.29
2022-07-29T00:55:14.327Z,18.74
2022-07-29T00:57:43.262Z,19.09
2022-07-29T01:00:18.573Z,19.19
2022-07-29T01:02:49.405Z,18.53
2022-07-29T01:05:50.253Z,17.90
2022-07-29T01:08:15.249Z,17.36
2022-07-29T01:10:43.110Z,17.21
2022-07-29T01:13:11.012Z,17.80
2022-07-29T01:15:49.186Z,18.40
2022-07-29T01:18:22.127Z,18.87
2022-07-29T01:21:05.540Z,19.17
2022-07-29T01:23:47.144Z,19.09
2022-07-29T01:26:29.573Z,18.31
2022-07-29T01:29:12.726Z,17.64
2022-07-29T01:32:00.842Z,17.16
2022-07-29T01:34:38.046Z,16.77
2022-07-29T01:37:33.862Z,16.71
2022-07-29T01:40:03.209Z,17.51
2022-07-29T01:42:40.722Z,18.12
2022-07-29T01:45:38.685Z,18.56
2022-07-29T01:48:18.099Z,18.85
2022-07-29T01:51:18.164Z,19.04
2022-07-29T01:54:02.239Z,18.88
2022-07-29T01:56:34.678Z,18.08
2022-07-29T01:59:02.805Z,17.41
2022-07-29T02:01:32.848Z,16.90
2022-07-29T02:04:03.990Z,16.66
2022-07-29T02:06:32.922Z,17.24
2022-07-29T02:09:00.999Z,17.84
2022-07-29T02:11:28.934Z,18.25
2022-07-29T02:13:57.127Z,18.52
2022-07-29T02:16:25.178Z,18.59
2022-07-29T02:18:54.000Z,17.98
2022-07-29T02:21:25.393Z,17.33
2022-07-29T02:23:54.150Z,16.80
2022-07-29T02:26:22.446Z,16.59
2022-07-29T02:28:51.612Z,17.19
2022-07-29T02:31:20.664Z,17.82
2022-07-29T02:33:48.501Z,18.28
2022-07-29T02:36:16.323Z,18.52
2022-07-29T02:38:52.954Z,18.62
2022-07-29T02:41:49.148Z,17.99
2022-07-29T02:44:22.526Z,17.21
2022-07-29T02:47:02.685Z,16.71
2022-07-29T02:49:36.399Z,16.54
2022-07-29T02:52:31.346Z,17.19
2022-07-29T02:55:24.340Z,17.86
2022-07-29T02:58:33.524Z,18.29
2022-07-29T03:01:06.422Z,18.56
2022-07-29T03:03:37.484Z,18.69
2022-07-29T03:06:05.797Z,18.67
2022-07-29T03:08:33.580Z,18.04
2022-07-29T03:11:02.225Z,17.41
2022-07-29T03:13:30.674Z,16.95
2022-07-29T03:15:59.412Z,16.64
2022-07-29T03:18:27.559Z,16.61
2022-07-29T03:20:55.425Z,17.34
2022-07-29T03:23:25.003Z,18.14
2022-07-29T03:25:53.207Z,18.73
2022-07-29T03:28:23.426Z,19.05
2022-07-29T03:30:55.171Z,18.64
2022-07-29T03:33:23.355Z,18.22
2022-07-29T03:35:51.145Z,17.94
2022-07-29T03:38:18.986Z,17.71
2022-07-29T03:40:59.328Z,17.45
2022-07-29T03:43:27.149Z,17.37
2022-07-29T03:45:55.317Z,18.06
2022-07-29T03:48:23.552Z,18.78
2022-07-29T03:50:51.767Z,19.27
2022-07-29T03:53:19.799Z,19.43
2022-07-29T03:55:51.351Z,18.84
2022-07-29T03:58:19.218Z,18.30
2022-07-29T04:00:47.431Z,17.95
2022-07-29T04:04:40.390Z,17.79
2022-07-29T04:07:08.359Z,18.19
2022-07-29T04:09:36.232Z,19.15
2022-07-29T04:12:04.971Z,19.99
2022-07-29T04:14:33.944Z,20.26
2022-07-29T04:17:03.089Z,19.93
2022-07-29T04:19:31.232Z,19.59
2022-07-29T04:22:00.838Z,19.34
2022-07-29T04:24:29.215Z,19.30
2022-07-29T04:26:57.218Z,19.29
2022-07-29T04:29:25.255Z,19.57
2022-07-29T04:31:53.182Z,20.09
2022-07-29T04:34:21.462Z,20.59
2022-07-29T04:36:49.365Z,20.94
2022-07-29T04:39:22.751Z,21.64
2022-07-29T04:41:52.519Z,22.62
2022-07-29T04:44:28.675Z,23.34
2022-07-29T04:46:58.442Z,24.06
2022-07-29T04:49:26.508Z,24.95
2022-07-29T04:51:54.637Z,25.31
2022-07-29T04:54:22.652Z,25.74
2022-07-29T04:56:50.490Z,26.44
2022-07-29T04:59:18.485Z,27.36
2022-07-29T05:01:46.529Z,28.33
2022-07-29T05:04:14.805Z,29.27
2022-07-29T05:06:42.958Z,30.05
2022-07-29T05:09:10.882Z,30.05
2022-07-29T05:11:38.804Z,29.49
2022-07-29T05:14:06.641Z,29.01
2022-07-29T05:16:34.880Z,28.90
2022-07-29T05:19:02.947Z,28.81
2022-07-29T05:21:30.809Z,28.56
2022-07-29T05:23:58.985Z,28.99
2022-07-29T05:26:27.127Z,29.55
2022-07-29T05:28:55.674Z,29.84
2022-07-29T05:31:23.779Z,30.26
2022-07-29T05:33:51.643Z,30.59
2022-07-29T05:36:19.664Z,30.96
2022-07-29T05:38:47.566Z,31.48
2022-07-29T05:41:15.503Z,31.57
2022-07-29T05:43:43.573Z,31.88
2022-07-29T05:46:11.847Z,32.44
2022-07-29T05:48:40.201Z,32.68
2022-07-29T05:51:08.377Z,32.48
2022-07-29T05:53:36.422Z,32.81
2022-07-29T05:56:06.153Z,32.70
2022-07-29T05:58:34.240Z,32.01
2022-07-29T06:01:02.291Z,31.00
2022-07-29T06:03:30.333Z,30.42
2022-07-29T06:05:58.237Z,30.42
2022-07-29T06:08:26.111Z,30.12
2022-07-29T06:10:54.883Z,29.46
2022-07-29T06:13:22.800Z,29.09
2022-07-29T06:15:50.750Z,29.28
2022-07-29T06:18:18.951Z,29.49
2022-07-29T06:20:47.258Z,30.41
2022-07-29T06:23:15.370Z,31.42
2022-07-29T06:25:43.280Z,32.24
2022-07-29T06:28:11.296Z,32.25
2022-07-29T06:30:40.403Z,31.94
2022-07-29T06:33:08.311Z,31.61
2022-07-29T06:35:38.249Z,30.93
2022-07-29T06:38:29.908Z,30.29
2022-07-29T06:41:01.399Z,29.83
2022-07-29T06:43:52.509Z,29.97
2022-07-29T06:46:23.282Z,30.76
2022-07-29T06:48:52.761Z,31.14
2022-07-29T06:51:23.254Z,31.21
2022-07-29T06:53:59.322Z,31.02
2022-07-29T06:56:38.489Z,30.42
2022-07-29T06:59:09.198Z,29.84
2022-07-29T07:01:46.497Z,29.66
2022-07-29T07:04:15.104Z,29.63
2022-07-29T07:06:43.578Z,29.45
2022-07-29T07:09:11.675Z,29.21
2022-07-29T07:11:39.635Z,29.01
2022-07-29T07:14:07.528Z,29.10
2022-07-29T07:16:35.719Z,29.39
2022-07-29T07:19:03.764Z,29.04
2022-07-29T07:21:31.739Z,28.74
2022-07-29T07:24:00.603Z,28.93
2022-07-29T07:26:28.614Z,29.31
2022-07-29T07:28:56.657Z,30.00
2022-07-29T07:31:24.689Z,30.61
2022-07-29T07:33:54.454Z,31.13
2022-07-29T07:36:23.521Z,31.54
2022-07-29T07:38:51.673Z,31.73
2022-07-29T07:41:19.609Z,31.70
2022-07-29T07:43:47.735Z,31.71
2022-07-29T07:46:16.151Z,32.07
2022-07-29T07:48:44.348Z,32.50
2022-07-29T07:51:12.744Z,32.73
2022-07-29T07:53:41.012Z,32.49
2022-07-29T07:56:11.811Z,32.16
2022-07-29T07:58:40.702Z,31.61
2022-07-29T08:01:10.019Z,30.85
2022-07-29T08:03:38.090Z,30.35
2022-07-29T08:06:06.243Z,30.21
2022-07-29T08:08:34.222Z,30.17
2022-07-29T08:11:06.949Z,30.47
2022-07-29T08:13:37.700Z,30.74
2022-07-29T08:16:13.643Z,30.86
2022-07-29T08:18:44.258Z,31.01
2022-07-29T08:21:15.111Z,30.93
2022-07-29T08:23:58.722Z,30.92
2022-07-29T08:26:28.820Z,31.10
2022-07-29T08:28:56.885Z,31.45
2022-07-29T08:31:25.026Z,31.62
2022-07-29T08:33:57.391Z,31.50
2022-07-29T08:36:27.642Z,31.59
2022-07-29T08:38:55.929Z,31.66
2022-07-29T08:41:24.167Z,31.23
2022-07-29T08:43:53.044Z,30.57
2022-07-29T08:46:21.804Z,30.08
2022-07-29T08:48:50.063Z,29.75
2022-07-29T08:51:20.853Z,29.31
2022-07-29T08:53:50.037Z,28.92
2022-07-29T08:56:19.771Z,28.81
2022-07-29T08:58:48.797Z,28.49
2022-07-29T09:01:35.186Z,28.05
2022-07-29T09:04:05.922Z,27.78
2022-07-29T09:06:36.075Z,27.51
2022-07-29T09:09:05.185Z,27.58
2022-07-29T09:11:33.470Z,27.50
2022-07-29T09:14:01.507Z,27.40
2022-07-29T09:16:53.075Z,27.64
2022-07-29T09:19:28.350Z,27.42
2022-07-29T09:22:00.537Z,27.18
2022-07-29T09:24:41.810Z,27.23
2022-07-29T09:27:30.155Z,27.24
2022-07-29T09:30:02.006Z,27.20
2022-07-29T09:32:30.661Z,27.03
2022-07-29T09:35:24.765Z,26.99
2022-07-29T09:37:52.955Z,27.05
2022-07-29T09:40:26.940Z,27.02
2022-07-29T09:42:58.022Z,27.06
2022-07-29T09:45:34.170Z,27.10
2022-07-29T09:48:16.075Z,27.29
2022-07-29T09:50:45.236Z,27.41
2022-07-29T09:53:13.162Z,27.49
2022-07-29T09:55:51.650Z,27.54
2022-07-29T09:58:21.732Z,27.44
2022-07-29T10:00:52.023Z,27.51
2022-07-29T10:03:20.085Z,27.55
2022-07-29T10:06:05.144Z,27.70
2022-07-29T10:08:32.954Z,27.83
2022-07-29T10:11:20.145Z,27.77
2022-07-29T10:13:49.187Z,27.88
2022-07-29T10:16:17.445Z,28.05
2022-07-29T10:18:45.547Z,28.13
2022-07-29T10:21:35.154Z,28.22
2022-07-29T10:24:01.992Z,28.30
2022-07-29T10:26:30.844Z,28.00
2022-07-29T10:28:58.708Z,27.83
2022-07-29T10:32:11.222Z,27.77
2022-07-29T10:35:24.451Z,27.65
2022-07-29T10:38:30.102Z,27.48
2022-07-29T10:41:27.549Z,27.40
2022-07-29T10:44:17.099Z,27.52
2022-07-29T10:46:47.591Z,27.34
2022-07-29T10:49:24.354Z,27.29
2022-07-29T10:52:01.932Z,27.38
2022-07-29T10:54:48.870Z,27.37
2022-07-29T10:57:52.661Z,27.52
2022-07-29T11:00:16.977Z,27.60
2022-07-29T11:02:46.930Z,27.59
2022-07-29T11:05:22.338Z,27.72
2022-07-29T11:11:34.878Z,28.16
2022-07-29T11:14:02.946Z,28.28
2022-07-29T11:17:08.471Z,28.30
2022-07-29T11:19:40.167Z,28.26
2022-07-29T11:22:11.472Z,28.39
2022-07-29T11:24:39.539Z,28.54
2022-07-29T11:27:22.011Z,28.35
2022-07-29T11:29:56.141Z,28.36
2022-07-29T11:35:37.200Z,28.48
2022-07-29T11:38:29.358Z,28.39
2022-07-29T11:41:18.975Z,28.38
2022-07-29T11:43:59.528Z,28.53
2022-07-29T11:46:50.639Z,28.57
2022-07-29T11:49:32.733Z,28.35
2022-07-29T11:52:04.266Z,28.08
2022-07-29T11:54:53.900Z,28.03
2022-07-29T12:03:04.254Z,28.43
2022-07-29T12:05:36.903Z,28.18
2022-07-29T12:08:12.737Z,28.03
2022-07-29T12:10:43.397Z,28.10
2022-07-29T12:13:11.878Z,28.16
2022-07-29T12:15:46.814Z,28.37
2022-07-29T12:18:19.620Z,28.55
2022-07-29T12:21:05.032Z,28.68
2022-07-29T12:23:34.646Z,28.84
2022-07-29T12:26:07.541Z,29.03
2022-07-29T12:28:39.826Z,29.15
2022-07-29T12:35:28.296Z,29.18
2022-07-29T12:37:56.274Z,29.26
2022-07-29T12:40:24.555Z,29.23
2022-07-29T12:43:15.218Z,29.24
2022-07-29T12:45:46.641Z,29.20
2022-07-29T12:48:15.257Z,29.22
2022-07-29T12:51:04.443Z,29.35
2022-07-29T12:53:32.409Z,29.57
2022-07-29T12:56:08.056Z,29.65
2022-07-29T12:58:44.519Z,29.51
2022-07-29T13:01:20.592Z,29.32
2022-07-29T13:03:58.061Z,29.06
2022-07-29T13:06:50.844Z,28.88
2022-07-29T13:09:21.257Z,28.86
2022-07-29T13:11:53.846Z,28.83
2022-07-29T13:14:34.217Z,28.88
2022-07-29T13:17:09.696Z,29.00
2022-07-29T13:19:43.362Z,28.89
2022-07-29T13:22:13.196Z,28.75
2022-07-29T13:25:03.052Z,28.71
2022-07-29T13:27:35.392Z,28.73
2022-07-29T13:30:06.685Z,28.71
2022-07-29T13:32:35.601Z,28.68
2022-07-29T13:35:07.203Z,28.69
2022-07-29T13:37:39.198Z,28.59
2022-07-29T13:40:08.822Z,28.49
2022-07-29T13:42:36.732Z,28.47
2022-07-29T13:45:06.123Z,28.47
2022-07-29T13:47:34.351Z,28.59
2022-07-29T13:50:02.652Z,28.68
2022-07-29T13:52:30.641Z,28.79
2022-07-29T13:54:58.716Z,28.96
2022-07-29T13:57:26.782Z,29.07
2022-07-29T13:59:54.794Z,29.05
2022-07-29T14:02:25.504Z,29.04
2022-07-29T14:04:55.048Z,29.09
2022-07-29T14:07:23.676Z,28.94
2022-07-29T14:09:51.947Z,28.67
2022-07-29T14:12:20.328Z,28.51
2022-07-29T14:14:48.316Z,28.43
2022-07-29T14:17:16.724Z,28.38
2022-07-29T14:19:44.724Z,28.41
2022-07-29T14:22:12.642Z,28.44
2022-07-29T14:24:40.670Z,28.44
2022-07-29T14:27:09.140Z,28.29
2022-07-29T14:29:38.652Z,28.15
2022-07-29T14:32:08.274Z,28.18
2022-07-29T14:34:37.494Z,28.17
2022-07-29T14:37:16.011Z,28.29
2022-07-29T14:39:44.194Z,28.51
2022-07-29T14:42:13.023Z,28.71
2022-07-29T14:44:42.501Z,28.83
2022-07-29T14:47:10.822Z,28.81
2022-07-29T14:49:38.824Z,28.67
2022-07-29T14:52:07.047Z,28.65
2022-07-29T14:54:34.990Z,28.51
2022-07-29T14:57:02.861Z,28.47
2022-07-29T14:59:30.859Z,28.47
2022-07-29T15:01:59.070Z,28.47
2022-07-29T15:04:27.304Z,28.49
2022-07-29T15:06:55.315Z,28.47
2022-07-29T15:09:24.278Z,28.42
2022-07-29T15:11:52.183Z,28.37
2022-07-29T15:14:20.109Z,28.40
2022-07-29T15:16:48.435Z,28.37
2022-07-29T15:19:16.788Z,28.29
2022-07-29T15:21:48.623Z,28.29
2022-07-29T15:24:18.055Z,28.11
2022-07-29T15:26:46.886Z,28.03
2022-07-29T15:29:15.069Z,27.96
2022-07-29T15:31:43.401Z,27.80
2022-07-29T15:34:11.536Z,27.72
2022-07-29T15:36:51.950Z,27.77
2022-07-29T15:39:21.441Z,27.86
2022-07-29T15:41:49.602Z,28.01
2022-07-29T15:44:18.106Z,28.02
2022-07-29T15:47:04.293Z,27.95
2022-07-29T15:49:47.111Z,27.88
2022-07-29T15:52:25.676Z,27.84
2022-07-29T15:54:55.740Z,27.75
2022-07-29T15:57:24.074Z,27.64
2022-07-29T15:59:52.348Z,27.46
2022-07-29T16:02:20.197Z,27.33
2022-07-29T16:04:48.169Z,27.23
2022-07-29T16:07:16.267Z,27.12
2022-07-29T16:09:48.095Z,27.02
2022-07-29T16:12:26.275Z,27.00
2022-07-29T16:14:54.281Z,27.03
2022-07-29T16:17:22.312Z,27.13
2022-07-29T16:19:50.597Z,27.24
2022-07-29T16:22:18.607Z,27.35
2022-07-29T16:24:46.675Z,27.44
2022-07-29T16:27:14.690Z,27.46
2022-07-29T16:29:42.955Z,27.38
2022-07-29T16:32:10.976Z,27.27
2022-07-29T16:34:38.985Z,27.19
2022-07-29T16:37:07.001Z,27.10
2022-07-29T16:39:35.002Z,27.00
2022-07-29T16:42:05.260Z,26.93
2022-07-29T16:44:34.910Z,26.89
2022-07-29T16:47:04.177Z,26.86
2022-07-29T16:49:32.381Z,26.83
2022-07-29T16:52:00.316Z,26.78
2022-07-29T16:54:29.128Z,26.73
2022-07-29T16:56:57.485Z,26.71
2022-07-29T16:59:25.805Z,26.67
2022-07-29T17:01:53.806Z,26.52
2022-07-29T17:04:22.878Z,26.36
2022-07-29T17:06:51.016Z,26.23
2022-07-29T17:09:18.882Z,26.18
2022-07-29T17:11:54.851Z,26.17
2022-07-29T17:14:25.265Z,26.10
2022-07-29T17:17:01.309Z,26.01
2022-07-29T17:19:35.343Z,25.92
2022-07-29T17:22:12.606Z,25.85
2022-07-29T17:24:42.586Z,25.79
2022-07-29T17:27:10.529Z,25.73
2022-07-29T17:29:39.243Z,25.63
2022-07-29T17:32:08.223Z,25.51
2022-07-29T17:34:37.490Z,25.38
2022-07-29T17:37:06.444Z,25.29
2022-07-29T17:39:35.683Z,25.19
2022-07-29T17:42:04.624Z,25.09
2022-07-29T17:44:36.309Z,24.99
2022-07-29T17:47:06.399Z,24.85
2022-07-29T17:49:36.357Z,24.71
2022-07-29T17:52:05.874Z,24.58
2022-07-29T17:54:33.790Z,24.47
2022-07-29T17:57:01.923Z,24.34
2022-07-29T17:59:30.113Z,24.24
2022-07-29T18:01:58.129Z,24.11
2022-07-29T18:04:26.175Z,23.99
2022-07-29T18:06:54.088Z,23.88
2022-07-29T18:09:22.009Z,23.78
2022-07-29T18:11:49.902Z,23.67
2022-07-29T18:14:17.998Z,23.59
2022-07-29T18:16:46.101Z,23.50
2022-07-29T18:19:14.348Z,23.42
2022-07-29T18:21:54.583Z,23.35
2022-07-29T18:24:26.582Z,23.27
2022-07-29T18:26:54.651Z,23.19
2022-07-29T18:29:22.609Z,23.12
2022-07-29T18:31:50.783Z,23.05
2022-07-29T18:34:18.791Z,23.00
2022-07-29T18:36:46.759Z,22.93
2022-07-29T18:39:20.907Z,22.88
2022-07-29T18:41:52.333Z,22.82
2022-07-29T18:44:22.041Z,22.77
2022-07-29T18:46:52.022Z,22.70
2022-07-29T18:49:20.479Z,22.64
2022-07-29T18:51:49.392Z,22.58
2022-07-29T18:54:17.702Z,22.53
2022-07-29T18:56:46.459Z,22.47
2022-07-29T18:59:17.085Z,22.44
2022-07-29T19:01:45.412Z,22.39
2022-07-29T19:04:13.375Z,22.33
2022-07-29T19:06:41.355Z,22.28
2022-07-29T19:09:10.019Z,22.23
2022-07-29T19:11:38.432Z,22.18
2022-07-29T19:14:07.122Z,22.15
2022-07-29T19:16:35.180Z,22.12
2022-07-29T19:19:03.457Z,22.10
2022-07-29T19:21:31.533Z,22.06
2022-07-29T19:24:06.249Z,22.02
2022-07-29T19:26:36.850Z,21.98
2022-07-29T19:29:04.885Z,21.96
2022-07-29T19:31:32.937Z,21.94
2022-07-29T19:34:00.923Z,21.91
2022-07-29T19:36:28.913Z,21.88
2022-07-29T19:38:57.261Z,21.86
2022-07-29T19:41:25.168Z,21.81
2022-07-29T19:43:53.363Z,21.75
2022-07-29T19:46:23.688Z,21.68
2022-07-29T19:48:53.670Z,21.63
2022-07-29T19:51:23.034Z,21.57
2022-07-29T19:53:51.378Z,21.49
2022-07-29T19:56:19.443Z,21.40
2022-07-29T19:58:47.547Z,21.32
2022-07-29T20:01:17.007Z,21.26
2022-07-29T20:03:45.160Z,21.19
2022-07-29T20:06:13.676Z,21.13
2022-07-29T20:08:41.771Z,21.08
2022-07-29T20:11:09.719Z,21.04
2022-07-29T20:13:37.715Z,21.15
2022-07-29T20:16:08.345Z,21.90
2022-07-29T20:18:36.524Z,22.65
2022-07-29T20:21:04.849Z,23.01
2022-07-29T20:23:33.573Z,22.63
2022-07-29T20:26:01.834Z,22.15
2022-07-29T20:28:31.761Z,21.84
2022-07-29T20:30:59.799Z,21.58
2022-07-29T20:33:27.775Z,21.37
2022-07-29T20:35:55.973Z,21.17
2022-07-29T20:38:24.192Z,21.16
2022-07-29T20:40:54.123Z,21.82
2022-07-29T20:43:22.241Z,22.51
2022-07-29T20:45:51.289Z,22.99
2022-07-29T20:48:19.301Z,23.18
2022-07-29T20:50:48.833Z,22.69
2022-07-29T20:53:18.048Z,22.16
2022-07-29T20:55:46.106Z,21.77
2022-07-29T20:58:15.040Z,21.48
2022-07-29T21:00:43.253Z,21.25
2022-07-29T21:03:11.149Z,21.02
2022-07-29T21:05:39.178Z,20.97
2022-07-29T21:08:11.427Z,21.64
2022-07-29T21:10:39.515Z,22.29
2022-07-29T21:13:07.482Z,22.75
2022-07-29T21:15:35.984Z,22.90
2022-07-29T21:18:06.096Z,22.42
2022-07-29T21:20:34.032Z,21.84
2022-07-29T21:23:02.034Z,21.38
2022-07-29T21:25:29.930Z,21.05
2022-07-29T21:28:16.544Z,20.93
2022-07-29T21:30:44.547Z,21.63
2022-07-29T21:33:12.713Z,22.23
2022-07-29T21:36:06.243Z,22.67
2022-07-29T21:38:29.020Z,22.81
2022-07-29T21:40:57.201Z,22.21
2022-07-29T21:43:26.853Z,21.62
2022-07-29T21:45:58.745Z,21.21
2022-07-29T21:48:27.441Z,21.07
2022-07-29T21:50:55.474Z,21.66
2022-07-29T21:53:26.759Z,22.25
2022-07-29T21:55:55.500Z,22.61
2022-07-29T21:58:24.769Z,22.82
2022-07-29T22:00:52.896Z,22.84
2022-07-29T22:03:20.871Z,22.29
2022-07-29T22:05:48.825Z,21.72
2022-07-29T22:08:16.802Z,21.31
2022-07-29T22:10:44.811Z,21.14
2022-07-29T22:13:12.767Z,21.67
2022-07-29T22:15:45.344Z,22.26
2022-07-29T22:18:20.603Z,22.65
2022-07-29T22:20:50.078Z,22.90
2022-07-29T22:23:18.013Z,22.89
2022-07-29T22:25:45.893Z,22.32
2022-07-29T22:28:14.001Z,21.73
2022-07-29T22:30:41.947Z,21.31
2022-07-29T22:33:09.970Z,21.21
2022-07-29T22:35:48.381Z,21.88
2022-07-29T22:38:20.017Z,22.52
2022-07-29T22:40:50.528Z,22.97
2022-07-29T22:43:18.718Z,23.31
2022-07-29T22:45:46.864Z,23.35
2022-07-29T22:48:14.825Z,22.78
2022-07-29T22:50:43.026Z,22.16
2022-07-29T22:53:11.096Z,21.68
2022-07-29T22:55:39.207Z,21.44
2022-07-29T22:58:07.245Z,21.90
2022-07-29T23:00:35.436Z,22.42
2022-07-29T23:03:03.484Z,22.79
2022-07-29T23:05:32.832Z,23.10
2022-07-29T23:08:00.923Z,23.31
2022-07-29T23:10:28.823Z,23.45
2022-07-29T23:12:56.993Z,23.43
2022-07-29T23:15:25.710Z,22.86
2022-07-29T23:17:53.676Z,22.26
2022-07-29T23:20:21.622Z,21.78
2022-07-29T23:22:50.040Z,21.59
2022-07-29T23:25:18.066Z,22.15
2022-07-29T23:27:48.080Z,22.73
2022-07-29T23:30:16.027Z,23.12
2022-07-29T23:32:43.872Z,23.41
2022-07-29T23:35:11.858Z,23.53
2022-07-29T23:37:39.884Z,22.96
2022-07-29T23:40:13.923Z,22.28
2022-07-29T23:42:42.859Z,21.75
2022-07-29T23:45:11.912Z,21.52
2022-07-29T23:47:40.247Z,22.02
2022-07-29T23:50:09.554Z,22.53
2022-07-29T23:52:37.779Z,22.89
2022-07-29T23:55:37.253Z,23.16
2022-07-29T23:57:54.935Z,23.36
